Time;durP1;ratioP1;P1;durP2;ratioP2;P2;SDS_P1;SDS_P2;PMS_P1;PMS_P2;Temp;Humidity;BMP_temperature;BMP_pressure;BME280_temperature;BME280_humidity;BME280_pressure;Samples;Min_cycle;Max_cycle;Signal;HPM_P1;HPM_P2
2021/01/22 00:03:39;;;;;;;41.20;16.38;;;;;;;-2.08;56.88;98456.88;10457900;28;20053;-51
2021/01/22 00:08:41;;;;;;;47.35;20.85;;;;;;;-2.20;57.20;98441.28;10459914;28;20469;-49
2021/01/22 00:13:43;;;;;;;47.42;21.25;;;;;;;-2.17;57.06;98441.09;10458709;28;20084;-48
2021/01/22 00:18:45;;;;;;;48.80;20.08;;;;;;;-2.05;57.03;98439.63;10463745;28;20064;-48
2021/01/22 00:23:47;;;;;;;49.17;20.33;;;;;;;-1.99;57.25;98432.38;10456541;28;20056;-48
2021/01/22 00:28:49;;;;;;;45.88;21.35;;;;;;;-1.98;57.49;98441.75;10457458;28;20069;-49
2021/01/22 00:33:51;;;;;;;53.45;21.83;;;;;;;-1.92;57.54;98441.44;10457096;28;20057;-49
2021/01/22 00:38:53;;;;;;;48.42;19.55;;;;;;;-1.84;57.44;98432.47;10458120;28;20049;-48
2021/01/22 00:43:55;;;;;;;50.85;20.17;;;;;;;-1.76;57.56;98435.44;10457466;28;20390;-49
2021/01/22 00:48:57;;;;;;;40.75;19.73;;;;;;;-1.75;57.25;98442.28;10488652;28;20495;-48
2021/01/22 00:54:00;;;;;;;40.00;16.10;;;;;;;-1.72;57.44;98431.81;10498418;28;20389;-49
2021/01/22 00:59:07;;;;;;;49.75;20.95;;;;;;;-1.78;57.50;98427.00;10496990;28;20547;-49
2021/01/22 01:04:11;;;;;;;45.97;19.58;;;;;;;-1.82;57.76;98420.31;10497092;28;20065;-52
2021/01/22 01:09:29;;;;;;;42.90;19.17;;;;;;;-1.83;57.25;98421.25;10501335;28;20048;-50
2021/01/22 01:14:57;;;;;;;50.97;18.75;;;;;;;-1.83;56.91;98423.81;10498668;28;20393;-49
2021/01/22 01:20:11;;;;;;;40.65;16.63;;;;;;;-1.86;56.60;98432.53;10497205;28;20469;-48
2021/01/22 01:25:13;;;;;;;50.17;19.65;;;;;;;-1.89;56.66;98433.53;10497029;28;20476;-50
2021/01/22 01:30:16;;;;;;;33.47;15.40;;;;;;;-1.99;56.87;98440.13;10497717;28;20109;-48
2021/01/22 01:35:18;;;;;;;41.47;16.27;;;;;;;-1.98;57.04;98448.66;10492894;28;20056;-64
2021/01/22 01:40:21;;;;;;;52.70;19.48;;;;;;;-2.00;57.23;98453.06;10459494;28;20135;-49
2021/01/22 01:45:24;;;;;;;51.53;18.10;;;;;;;-1.98;57.53;98457.22;10455317;28;20056;-49
2021/01/22 01:50:26;;;;;;;55.00;21.00;;;;;;;-1.83;57.06;98460.72;10452312;28;20051;-49
2021/01/22 01:55:29;;;;;;;51.35;21.70;;;;;;;-1.80;57.19;98447.66;10451353;28;20059;-48
2021/01/22 02:00:31;;;;;;;45.92;19.48;;;;;;;-1.83;57.52;98434.13;10452087;28;20114;-50
2021/01/22 02:05:33;;;;;;;58.33;23.38;;;;;;;-1.86;57.48;98430.78;10452498;28;20052;-50
2021/01/22 02:10:36;;;;;;;54.25;24.88;;;;;;;-1.87;57.53;98431.72;10452837;28;20090;-49
2021/01/22 02:15:38;;;;;;;53.00;22.50;;;;;;;-1.88;57.16;98422.34;10456341;28;20516;-49
2021/01/22 02:20:52;;;;;;;54.10;23.67;;;;;;;-1.88;56.95;98419.75;10460031;28;20059;-49
2021/01/22 02:26:17;;;;;;;55.28;23.10;;;;;;;-1.90;56.90;98419.00;10458124;28;20421;-50
2021/01/22 02:31:20;;;;;;;58.97;23.70;;;;;;;-1.92;56.93;98427.72;10459236;28;20055;-49
2021/01/22 02:36:23;;;;;;;62.47;23.33;;;;;;;-1.88;57.17;98427.50;10459382;28;20134;-49
2021/01/22 02:41:26;;;;;;;49.70;24.63;;;;;;;-1.82;56.91;98426.31;10459991;28;20053;-50
2021/01/22 02:46:30;;;;;;;62.72;23.90;;;;;;;-1.89;57.34;98425.81;10460238;28;20073;-49
2021/01/22 02:51:32;;;;;;;65.03;26.13;;;;;;;-1.86;57.57;98425.66;10458994;28;20079;-49
2021/01/22 02:56:44;;;;;;;55.47;23.88;;;;;;;-1.81;57.39;98435.72;10458828;28;20057;-50
2021/01/22 03:01:57;;;;;;;55.60;22.52;;;;;;;-1.84;57.38;98422.19;10460792;28;20057;-49
2021/01/22 03:07:01;;;;;;;70.35;25.40;;;;;;;-1.85;57.54;98423.91;10459629;28;20485;-49
2021/01/22 03:12:05;;;;;;;70.05;26.25;;;;;;;-1.80;57.28;98426.22;10456297;28;20045;-53
2021/01/22 03:17:09;;;;;;;56.72;24.80;;;;;;;-1.75;57.30;98431.97;10457511;28;20118;-48
2021/01/22 03:22:10;;;;;;;70.70;26.70;;;;;;;-1.78;57.29;98432.16;10457426;28;20084;-49
2021/01/22 03:27:12;;;;;;;60.72;24.88;;;;;;;-1.81;57.44;98434.88;10458464;28;20053;-48
2021/01/22 03:32:15;;;;;;;71.20;23.95;;;;;;;-1.87;57.58;98429.16;10460942;28;20136;-49
2021/01/22 03:37:17;;;;;;;68.22;25.38;;;;;;;-1.91;57.94;98425.09;10459894;28;20053;-48
2021/01/22 03:42:19;;;;;;;75.85;26.48;;;;;;;-1.86;58.09;98435.13;10460683;28;20143;-49
2021/01/22 03:47:21;;;;;;;80.40;28.38;;;;;;;-1.66;57.78;98447.75;10460396;28;20067;-49
2021/01/22 03:52:23;;;;;;;73.65;26.42;;;;;;;-1.56;57.21;98442.09;10459796;28;20156;-49
2021/01/22 03:57:25;;;;;;;84.93;27.95;;;;;;;-1.64;57.81;98439.91;10457846;28;20139;-49
2021/01/22 04:02:27;;;;;;;75.07;27.55;;;;;;;-1.67;57.51;98438.34;10455603;28;20594;-50
2021/01/22 04:07:29;;;;;;;75.35;26.80;;;;;;;-1.64;57.58;98439.91;10455883;28;20445;-49
2021/01/22 04:12:30;;;;;;;87.47;29.08;;;;;;;-1.63;57.54;98432.13;10459152;28;20049;-49
2021/01/22 04:17:34;;;;;;;76.13;28.75;;;;;;;-1.70;57.81;98425.63;10457387;28;20132;-49
2021/01/22 04:22:35;;;;;;;73.65;26.98;;;;;;;-1.69;57.94;98429.88;10458991;28;20416;-49
2021/01/22 04:27:37;;;;;;;78.68;27.35;;;;;;;-1.65;58.05;98438.25;10461168;28;20091;-49
2021/01/22 04:32:41;;;;;;;79.45;28.90;;;;;;;-1.51;58.14;98430.59;10458919;28;20139;-52
2021/01/22 04:37:43;;;;;;;80.57;26.05;;;;;;;-1.54;57.87;98424.75;10458651;28;20048;-48
2021/01/22 04:42:46;;;;;;;76.85;27.95;;;;;;;-1.57;58.17;98430.94;10458024;28;20049;-50
2021/01/22 04:47:49;;;;;;;73.65;26.13;;;;;;;-1.61;58.14;98426.88;10463732;28;20045;-48
2021/01/22 04:52:55;;;;;;;96.97;31.17;;;;;;;-1.65;58.65;98433.94;10459836;28;20078;-50
2021/01/22 04:58:00;;;;;;;96.90;28.00;;;;;;;-1.60;58.15;98433.69;10463816;28;20355;-49
2021/01/22 05:03:04;;;;;;;83.13;26.73;;;;;;;-1.53;58.42;98442.75;10461034;28;20080;-48
2021/01/22 05:08:05;;;;;;;;;;;;;;;-1.50;58.42;98442.56;10460068;28;20047;-49
2021/01/22 05:13:09;;;;;;;94.75;28.02;;;;;;;-1.52;58.20;98438.41;10459332;28;20002;-48
2021/01/22 05:18:12;;;;;;;99.18;26.73;;;;;;;-1.59;58.48;98429.38;10458390;28;20051;-51
2021/01/22 05:23:13;;;;;;;79.80;26.80;;;;;;;-1.58;58.34;98429.28;10459247;28;20059;-49
2021/01/22 05:28:15;;;;;;;92.75;26.90;;;;;;;-1.58;58.51;98437.00;10461036;28;20150;-50
2021/01/22 05:33:18;;;;;;;86.70;28.42;;;;;;;-1.54;58.54;98440.22;10462382;28;20045;-48
2021/01/22 05:38:35;;;;;;;188.85;48.72;;;;;;;-1.43;58.23;98445.63;10462271;28;20052;-49
2021/01/22 05:43:37;;;;;;;95.03;29.13;;;;;;;-1.42;58.27;98445.56;10495398;28;20060;-48
2021/01/22 05:48:40;;;;;;;95.37;31.00;;;;;;;-1.38;58.61;98451.38;10501213;28;20130;-49
2021/01/22 05:53:46;;;;;;;96.53;30.30;;;;;;;-1.32;58.65;98443.28;10506915;28;20464;-48
2021/01/22 05:58:48;;;;;;;104.30;31.70;;;;;;;-1.25;58.88;98436.84;10509155;28;20105;-49
2021/01/22 06:03:52;;;;;;;122.07;33.53;;;;;;;-1.18;58.54;98429.59;10508630;28;20076;-50
2021/01/22 06:08:54;;;;;;;;;;;;;;;-1.17;58.37;98441.53;10509635;28;20040;-48
2021/01/22 06:13:57;;;;;;;201.73;52.97;;;;;;;-1.22;58.31;98431.50;10507354;28;19924;-48
2021/01/22 06:19:02;;;;;;;103.25;33.72;;;;;;;-1.23;58.16;98429.00;10507048;28;20113;-51
2021/01/22 06:24:06;;;;;;;65.68;17.80;;;;;;;-1.31;58.85;98433.78;10507346;28;20147;-49
2021/01/22 06:29:10;;;;;;;119.05;32.78;;;;;;;-1.44;59.24;98421.59;10506127;28;20137;-50
2021/01/22 06:34:12;;;;;;;;;;;;;;;-1.31;59.29;98419.16;10506834;28;20044;-48
2021/01/22 06:39:15;;;;;;;106.32;31.65;;;;;;;-1.16;58.99;98410.53;10506966;28;19924;-48
2021/01/22 06:44:19;;;;;;;113.63;31.80;;;;;;;-1.07;59.44;98414.34;10505634;28;20477;-49
2021/01/22 06:49:32;;;;;;;127.60;32.47;;;;;;;-1.02;59.44;98412.28;10506860;28;20456;-50
2021/01/22 06:54:33;;;;;;;76.22;25.42;;;;;;;-0.87;59.63;98414.91;10507015;28;20063;-48
2021/01/22 06:59:38;;;;;;;95.68;29.27;;;;;;;-0.91;60.25;98416.00;10505880;28;20525;-48
2021/01/22 07:04:41;;;;;;;78.03;26.85;;;;;;;-0.87;60.40;98409.75;10505294;28;20113;-48
2021/01/22 07:10:00;;;;;;;126.57;36.08;;;;;;;-0.84;60.78;98414.72;10507260;28;20041;-56
2021/01/22 07:15:03;;;;;;;119.20;33.15;;;;;;;-0.70;60.92;98407.00;10509527;28;20139;-49
2021/01/22 07:20:09;;;;;;;92.78;23.92;;;;;;;-0.63;60.96;98408.28;10504546;28;20059;-49
2021/01/22 07:25:11;;;;;;;91.82;30.85;;;;;;;-0.68;61.38;98420.63;10505034;28;20045;-50
2021/01/22 07:30:15;;;;;;;127.03;36.67;;;;;;;-0.66;61.62;98423.94;10508649;28;20041;-56
2021/01/22 07:35:22;;;;;;;80.22;28.67;;;;;;;-0.61;61.66;98423.69;10507849;28;20067;-58
2021/01/22 07:40:23;;;;;;;98.70;28.10;;;;;;;-0.56;62.20;98425.03;10506724;28;20048;-50
2021/01/22 07:45:25;;;;;;;111.82;34.67;;;;;;;-0.43;62.31;98414.84;10503667;28;20048;-50
2021/01/22 07:50:31;;;;;;;108.20;34.15;;;;;;;-0.24;62.34;98430.84;10502928;28;20044;-49
2021/01/22 07:55:33;;;;;;;95.05;30.38;;;;;;;-0.13;62.48;98432.75;10502889;28;20416;-48
2021/01/22 08:00:38;;;;;;;95.82;30.48;;;;;;;0.00;62.40;98432.84;10502433;28;20151;-50
2021/01/22 08:05:41;;;;;;;114.10;35.45;;;;;;;0.10;62.83;98433.09;10503372;28;20052;-49
2021/01/22 08:10:43;;;;;;;;;;;;;;;0.14;62.82;98434.56;10503106;28;20044;-49
2021/01/22 08:15:45;;;;;;;85.75;29.27;;;;;;;0.23;62.59;98426.22;10503328;28;20388;-49
2021/01/22 08:20:51;;;;;;;118.47;35.63;;;;;;;0.36;63.26;98414.19;10502428;28;20049;-49
2021/01/22 08:25:59;;;;;;;116.55;38.05;;;;;;;0.56;63.25;98417.25;10501100;28;20054;-49
2021/01/22 08:31:01;;;;;;;117.28;35.60;;;;;;;0.67;63.41;98409.59;10501936;28;20051;-49
2021/01/22 08:36:06;;;;;;;101.03;29.40;;;;;;;0.76;63.26;98415.94;10501456;28;20059;-50
2021/01/22 08:41:08;;;;;;;106.75;31.58;;;;;;;0.79;63.28;98426.91;10500869;28;20147;-49
2021/01/22 08:46:11;;;;;;;101.30;33.45;;;;;;;0.77;63.75;98420.16;10500777;28;20052;-48
2021/01/22 08:51:14;;;;;;;102.13;34.20;;;;;;;0.82;63.73;98421.53;10500743;28;20060;-50
2021/01/22 08:56:17;;;;;;;110.90;36.67;;;;;;;0.89;63.70;98415.06;10500364;28;20045;-50
2021/01/22 09:01:19;;;;;;;119.20;41.15;;;;;;;1.06;64.22;98415.69;10500584;28;20091;-49
2021/01/22 09:06:47;;;;;;;104.30;38.78;;;;;;;1.31;63.58;98418.25;10500070;28;20058;-50
2021/01/22 09:11:49;;;;;;;109.65;37.10;;;;;;;1.52;64.27;98405.63;10502177;28;20106;-48
2021/01/22 09:16:52;;;;;;;115.38;40.50;;;;;;;1.73;64.08;98412.84;10501103;28;20480;-48
2021/01/22 09:21:55;;;;;;;120.00;39.00;;;;;;;1.79;63.80;98392.50;10499533;28;20350;-48
2021/01/22 09:26:59;;;;;;;102.60;36.00;;;;;;;1.81;63.36;98402.75;10499805;28;20473;-50
2021/01/22 09:32:07;;;;;;;99.18;35.80;;;;;;;1.79;63.69;98402.88;10501657;28;20049;-50
2021/01/22 09:37:09;;;;;;;93.25;32.65;;;;;;;1.76;63.96;98400.50;10500781;28;20056;-48
2021/01/22 09:42:11;;;;;;;95.43;32.20;;;;;;;1.74;64.13;98399.78;10500498;28;20434;-49
2021/01/22 09:47:13;;;;;;;99.40;32.35;;;;;;;1.76;64.59;98394.50;10499836;28;20424;-48
2021/01/22 09:52:15;;;;;;;108.78;32.53;;;;;;;1.72;64.59;98390.44;10499284;28;20483;-50
2021/01/22 09:57:17;;;;;;;86.30;33.08;;;;;;;1.75;65.02;98391.06;10499171;28;20508;-49
2021/01/22 10:02:19;;;;;;;98.25;31.80;;;;;;;1.87;65.47;98378.19;10499225;28;20067;-50
2021/01/22 10:07:21;;;;;;;96.57;31.63;;;;;;;1.96;65.42;98377.53;10500936;28;20113;-48
2021/01/22 10:12:23;;;;;;;86.13;27.67;;;;;;;2.04;65.37;98372.63;10501629;28;20040;-48
2021/01/22 10:17:25;;;;;;;88.60;30.65;;;;;;;2.15;66.15;98372.69;10498992;28;20048;-48
2021/01/22 10:22:27;;;;;;;91.25;31.70;;;;;;;2.26;66.21;98369.31;10498688;28;20488;-50
2021/01/22 10:27:29;;;;;;;85.32;30.60;;;;;;;2.38;66.29;98359.84;10498884;28;20052;-50
2021/01/22 10:32:31;;;;;;;87.05;32.05;;;;;;;2.57;66.46;98357.53;10499068;28;20431;-49
2021/01/22 10:37:33;;;;;;;83.22;32.00;;;;;;;2.70;67.21;98353.09;10504330;28;20063;-48
2021/01/22 10:42:35;;;;;;;79.22;30.98;;;;;;;2.83;66.70;98354.75;10506459;28;20058;-48
2021/01/22 10:47:36;;;;;;;79.25;30.63;;;;;;;3.08;67.31;98352.00;10506439;28;20048;-48
2021/01/22 10:52:39;;;;;;;80.18;30.60;;;;;;;3.19;67.00;98353.75;10507098;28;20147;-49
2021/01/22 10:57:41;;;;;;;59.20;23.48;;;;;;;3.18;66.38;98354.72;10505118;28;20062;-49
2021/01/22 11:02:42;;;;;;;66.38;24.80;;;;;;;3.13;67.19;98357.63;10505159;28;20416;-50
2021/01/22 11:07:45;;;;;;;66.57;24.60;;;;;;;3.07;67.53;98358.09;10504339;28;20315;-50
2021/01/22 11:12:47;;;;;;;61.67;24.00;;;;;;;3.03;67.58;98350.69;10504775;28;20051;-50
2021/01/22 11:17:48;;;;;;;63.65;24.90;;;;;;;2.95;67.59;98348.66;10507451;28;20358;-51
2021/01/22 11:22:51;;;;;;;56.10;22.38;;;;;;;2.89;67.56;98352.53;10509363;28;20048;-49
2021/01/22 11:27:53;;;;;;;59.83;25.80;;;;;;;2.89;67.46;98349.94;10504416;28;20052;-49
2021/01/22 11:32:54;;;;;;;49.17;20.52;;;;;;;3.03;67.71;98354.09;10504507;28;20052;-50
2021/01/22 11:37:57;;;;;;;59.40;21.90;;;;;;;3.10;67.68;98352.69;10503854;28;20057;-50
2021/01/22 11:42:59;;;;;;;59.42;22.92;;;;;;;3.20;67.91;98348.47;10503950;28;20053;-49
2021/01/22 11:48:00;;;;;;;51.03;19.45;;;;;;;3.28;67.70;98349.63;10502720;28;20127;-50
2021/01/22 11:53:03;;;;;;;54.33;20.02;;;;;;;3.23;67.46;98353.41;10502701;28;20058;-49
2021/01/22 11:58:05;;;;;;;48.05;19.88;;;;;;;3.07;67.21;98345.13;10504078;28;20102;-49
2021/01/22 12:03:07;;;;;;;42.83;18.83;;;;;;;3.03;67.46;98343.72;10503151;28;20071;-49
2021/01/22 12:08:09;;;;;;;46.35;19.63;;;;;;;2.83;67.29;98346.97;10502075;28;20155;-50
2021/01/22 12:13:11;;;;;;;40.38;15.18;;;;;;;2.81;67.34;98343.69;10502430;28;20052;-51
2021/01/22 12:18:12;;;;;;;52.35;21.08;;;;;;;2.76;67.36;98347.44;10501842;28;20362;-49
2021/01/22 12:23:15;;;;;;;43.70;17.90;;;;;;;2.72;67.60;98340.84;10501583;28;20049;-52
2021/01/22 12:28:17;;;;;;;50.50;19.38;;;;;;;2.66;67.37;98351.66;10502594;28;20049;-51
2021/01/22 12:33:18;;;;;;;51.30;19.95;;;;;;;2.64;67.37;98353.53;10501103;28;20452;-49
2021/01/22 12:38:22;;;;;;;45.28;18.60;;;;;;;2.72;67.59;98356.41;10501152;28;20059;-51
2021/01/22 12:43:24;;;;;;;49.15;19.92;;;;;;;2.79;67.15;98361.13;10501035;28;20491;-49
2021/01/22 12:48:25;;;;;;;44.53;19.77;;;;;;;2.84;67.29;98362.44;10502105;28;20109;-50
2021/01/22 12:53:28;;;;;;;37.83;14.20;;;;;;;2.76;67.18;98370.78;10501292;28;20058;-51
2021/01/22 12:58:30;;;;;;;46.03;17.17;;;;;;;2.69;66.78;98372.19;10500845;28;20488;-48
2021/01/22 13:03:31;;;;;;;44.63;18.25;;;;;;;2.65;67.10;98368.19;10500744;28;20075;-51
2021/01/22 13:08:34;;;;;;;44.30;19.35;;;;;;;2.68;67.18;98373.16;10500597;28;20048;-51
2021/01/22 13:13:36;;;;;;;42.40;14.93;;;;;;;2.65;67.42;98375.97;10500666;28;20420;-51
2021/01/22 13:18:38;;;;;;;46.10;18.02;;;;;;;2.59;67.25;98373.00;10500064;28;20436;-51
2021/01/22 13:23:41;;;;;;;36.42;14.63;;;;;;;2.53;67.26;98366.50;10499061;28;20052;-51
2021/01/22 13:28:43;;;;;;;44.45;18.48;;;;;;;2.51;66.99;98376.16;10501950;28;20048;-53
2021/01/22 13:33:45;;;;;;;21.92;9.63;;;;;;;2.53;67.38;98377.69;10505982;28;20201;-49
2021/01/22 13:38:48;;;;;;;43.65;17.65;;;;;;;2.42;66.83;98382.00;10500200;28;20051;-51
2021/01/22 13:43:49;;;;;;;40.53;18.40;;;;;;;2.39;67.19;98374.44;10499760;28;20397;-50
2021/01/22 13:48:51;;;;;;;44.35;18.55;;;;;;;2.41;67.17;98370.00;10499735;28;20489;-49
2021/01/22 13:53:54;;;;;;;48.30;19.15;;;;;;;2.44;67.06;98374.94;10499336;28;20114;-51
2021/01/22 13:58:55;;;;;;;42.67;17.65;;;;;;;2.35;67.36;98370.44;10499202;28;20131;-48
2021/01/22 14:03:57;;;;;;;55.38;18.25;;;;;;;2.33;67.42;98367.94;10499598;28;20087;-48
2021/01/22 14:08:59;;;;;;;43.28;17.15;;;;;;;2.36;66.90;98364.28;10499737;28;20066;-49
2021/01/22 14:14:01;;;;;;;31.48;12.20;;;;;;;2.32;67.46;98363.69;10506785;28;20557;-54
2021/01/22 14:19:03;;;;;;;41.58;18.10;;;;;;;2.30;67.10;98362.97;10507699;28;20067;-50
2021/01/22 14:24:07;;;;;;;22.75;10.15;;;;;;;2.19;67.64;98353.41;10507357;28;20064;-48
2021/01/22 14:29:08;;;;;;;;;;;;;;;2.21;67.75;98359.28;10506358;28;20063;-50
2021/01/22 14:34:10;;;;;;;40.05;14.27;;;;;;;2.27;67.79;98360.59;10506533;28;19924;-51
2021/01/22 14:39:12;;;;;;;40.38;17.48;;;;;;;2.23;67.87;98372.13;10488796;28;20052;-48
2021/01/22 14:44:14;;;;;;;46.22;18.52;;;;;;;2.24;67.96;98371.19;10423309;28;20143;-49
2021/01/22 14:49:16;;;;;;;44.25;16.25;;;;;;;2.17;67.80;98368.22;10422888;28;20359;-48
2021/01/22 14:54:18;;;;;;;23.25;9.27;;;;;;;2.20;67.79;98362.81;10421876;28;20045;-50
2021/01/22 14:59:20;;;;;;;36.08;16.13;;;;;;;2.23;67.94;98369.53;10422486;28;20143;-49
2021/01/22 15:04:22;;;;;;;47.33;16.92;;;;;;;2.28;68.19;98364.88;10470024;28;20064;-49
2021/01/22 15:09:24;;;;;;;46.75;16.02;;;;;;;2.30;68.13;98365.56;10504367;28;20072;-49
2021/01/22 15:14:26;;;;;;;46.60;16.30;;;;;;;2.36;68.11;98377.25;10504617;28;20401;-50
2021/01/22 15:19:28;;;;;;;32.20;12.65;;;;;;;2.32;67.75;98373.25;10504377;28;20048;-49
2021/01/22 15:24:30;;;;;;;35.78;13.23;;;;;;;2.35;67.96;98367.84;10502945;28;20064;-47
2021/01/22 15:29:32;;;;;;;41.47;14.55;;;;;;;2.33;67.55;98372.28;10506890;28;20094;-49
2021/01/22 15:34:34;;;;;;;27.83;10.88;;;;;;;2.24;67.94;98371.19;10506163;28;20120;-48
2021/01/22 15:39:36;;;;;;;29.83;12.75;;;;;;;2.10;67.79;98374.78;10507694;28;20041;-54
2021/01/22 15:44:39;;;;;;;21.73;8.05;;;;;;;2.07;67.75;98385.38;10502707;28;20485;-48
2021/01/22 15:49:41;;;;;;;27.35;12.57;;;;;;;1.97;67.88;98372.25;10469031;28;20093;-48
2021/01/22 15:54:44;;;;;;;25.70;11.38;;;;;;;1.98;68.18;98375.66;10460205;28;20131;-50
2021/01/22 15:59:45;;;;;;;29.90;12.03;;;;;;;2.04;67.72;98386.44;10460358;28;20499;-49
2021/01/22 16:04:47;;;;;;;34.05;12.95;;;;;;;2.10;67.87;98390.34;10474713;28;20533;-48
2021/01/22 16:09:50;;;;;;;37.47;14.50;;;;;;;2.20;67.76;98380.97;10434115;28;20060;-47
2021/01/22 16:14:51;;;;;;;39.22;15.77;;;;;;;2.30;67.76;98383.72;10448235;28;20452;-50
2021/01/22 16:19:53;;;;;;;32.42;15.02;;;;;;;2.30;67.63;98383.72;10461578;28;20071;-48
2021/01/22 16:24:56;;;;;;;39.30;14.52;;;;;;;2.33;67.59;98385.25;10418154;28;20049;-51
2021/01/22 16:29:57;;;;;;;29.20;11.38;;;;;;;2.29;67.40;98380.31;10418251;28;20127;-50
2021/01/22 16:35:00;;;;;;;18.75;7.05;;;;;;;2.08;67.67;98382.66;10417456;28;20049;-50
2021/01/22 16:40:05;;;;;;;24.05;8.63;;;;;;;1.92;68.15;98378.69;10423902;28;20052;-50
2021/01/22 16:45:07;;;;;;;33.42;11.82;;;;;;;2.01;67.66;98389.22;10450281;28;20045;-49
2021/01/22 16:50:10;;;;;;;29.02;11.70;;;;;;;2.10;67.83;98385.16;10457940;28;20053;-49
2021/01/22 16:55:12;;;;;;;30.40;13.35;;;;;;;2.13;67.55;98381.53;10458703;28;20053;-49
2021/01/22 17:00:15;;;;;;;36.10;14.80;;;;;;;2.25;67.41;98383.25;10460189;28;20044;-49
2021/01/22 17:05:17;;;;;;;39.20;14.97;;;;;;;2.30;67.21;98391.50;10458585;28;20086;-49
2021/01/22 17:10:20;;;;;;;38.55;15.98;;;;;;;2.19;67.70;98394.06;10458237;28;20079;-50
2021/01/22 17:15:22;;;;;;;24.10;10.10;;;;;;;2.16;67.63;98389.91;10458136;28;20064;-51
2021/01/22 17:20:24;;;;;;;27.38;11.98;;;;;;;2.17;67.48;98393.31;10454621;28;20129;-50
2021/01/22 17:25:26;;;;;;;36.55;13.80;;;;;;;2.12;67.52;98388.44;10454833;28;20084;-49
2021/01/22 17:30:28;;;;;;;40.73;15.37;;;;;;;2.16;67.55;98386.50;10460385;28;20072;-54
2021/01/22 17:35:30;;;;;;;40.03;14.50;;;;;;;2.19;67.78;98386.28;10456900;28;20053;-48
2021/01/22 17:40:32;;;;;;;39.65;15.38;;;;;;;2.17;67.52;98376.00;10454442;28;20102;-51
2021/01/22 17:45:34;;;;;;;37.40;16.25;;;;;;;2.26;67.66;98388.31;10459134;28;20059;-49
2021/01/22 17:50:36;;;;;;;37.17;14.60;;;;;;;2.24;66.95;98379.78;10464588;28;20082;-50
2021/01/22 17:55:38;;;;;;;41.00;18.02;;;;;;;2.25;67.32;98371.09;10464554;28;20501;-50
2021/01/22 18:00:40;;;;;;;36.50;15.57;;;;;;;2.33;67.27;98359.34;10463406;28;20045;-49
2021/01/22 18:05:43;;;;;;;34.78;12.40;;;;;;;2.30;66.95;98363.78;10461570;28;20496;-49
2021/01/22 18:10:46;;;;;;;39.33;15.95;;;;;;;2.19;66.87;98371.53;10461908;28;20056;-49
2021/01/22 18:15:48;;;;;;;46.50;19.23;;;;;;;2.26;67.29;98371.91;10461489;28;20140;-50
2021/01/22 18:20:49;;;;;;;46.08;18.92;;;;;;;2.41;67.21;98383.78;10461060;28;20045;-50
2021/01/22 18:25:52;;;;;;;57.72;19.33;;;;;;;2.50;66.57;98382.28;10462521;28;20516;-49
2021/01/22 18:30:54;;;;;;;45.25;15.68;;;;;;;2.50;66.65;98377.09;10460872;28;20053;-50
2021/01/22 18:35:55;;;;;;;43.00;17.92;;;;;;;2.44;67.05;98367.16;10462195;28;20151;-50
2021/01/22 18:40:58;;;;;;;35.38;14.30;;;;;;;2.33;66.61;98375.72;10463047;28;20487;-50
2021/01/22 18:46:00;;;;;;;34.65;15.77;;;;;;;2.44;66.92;98372.34;10462918;28;20076;-49
2021/01/22 18:51:02;;;;;;;39.00;17.20;;;;;;;2.41;67.01;98378.59;10462090;28;20044;-49
2021/01/22 18:56:05;;;;;;;44.22;16.90;;;;;;;2.44;66.87;98375.78;10462254;28;20516;-49
2021/01/22 19:01:06;;;;;;;41.67;16.87;;;;;;;2.54;66.97;98373.31;10460043;28;20504;-48
2021/01/22 19:06:08;;;;;;;41.47;16.88;;;;;;;2.59;66.72;98376.41;10455803;28;20077;-49
2021/01/22 19:11:11;;;;;;;40.03;14.88;;;;;;;2.61;66.40;98371.94;10427920;28;20053;-54
2021/01/22 19:16:13;;;;;;;47.90;18.60;;;;;;;2.48;66.42;98376.38;10424027;28;20045;-50
2021/01/22 19:21:15;;;;;;;43.05;15.20;;;;;;;2.34;66.53;98381.72;10420427;28;20152;-49
2021/01/22 19:26:17;;;;;;;47.65;18.63;;;;;;;2.25;66.62;98383.25;10420101;28;20045;-49
2021/01/22 19:31:19;;;;;;;41.33;13.57;;;;;;;2.14;66.59;98376.22;10421215;28;20053;-48
2021/01/22 19:36:21;;;;;;;47.45;17.52;;;;;;;2.02;67.09;98366.72;10446784;28;20136;-50
2021/01/22 19:41:23;;;;;;;52.63;20.10;;;;;;;2.01;67.25;98370.25;10461949;28;20087;-48
2021/01/22 19:46:25;;;;;;;46.15;17.65;;;;;;;2.08;67.11;98372.28;10461701;28;20048;-48
2021/01/22 19:51:27;;;;;;;50.95;19.20;;;;;;;2.13;67.03;98373.75;10461412;28;20059;-49
2021/01/22 19:56:30;;;;;;;49.15;16.80;;;;;;;2.08;66.77;98381.84;10462512;28;20063;-48
2021/01/22 20:01:32;;;;;;;38.83;14.60;;;;;;;2.13;67.02;98384.13;10461215;28;20049;-49
2021/01/22 20:06:35;;;;;;;49.83;18.23;;;;;;;2.12;67.21;98374.66;10458654;28;20094;-51
2021/01/22 20:11:37;;;;;;;46.93;16.97;;;;;;;2.08;66.88;98374.88;10449633;28;20045;-49
2021/01/22 20:16:39;;;;;;;39.58;13.38;;;;;;;2.07;67.16;98372.41;10458605;28;20413;-50
2021/01/22 20:21:41;;;;;;;41.20;17.13;;;;;;;2.04;66.98;98375.22;10458124;28;20053;-50
2021/01/22 20:26:43;;;;;;;37.33;13.68;;;;;;;2.05;67.30;98376.88;10460754;28;20156;-50
2021/01/22 20:31:45;;;;;;;35.28;13.13;;;;;;;2.00;67.17;98378.97;10460093;28;20477;-49
2021/01/22 20:36:46;;;;;;;41.80;16.92;;;;;;;1.99;67.44;98372.94;10459408;28;20055;-48
2021/01/22 20:41:49;;;;;;;45.30;16.02;;;;;;;2.07;67.06;98377.59;10459480;28;20076;-50
2021/01/22 20:46:51;;;;;;;34.47;12.35;;;;;;;2.09;67.22;98378.31;10459729;28;20076;-48
2021/01/22 20:51:53;;;;;;;39.92;16.20;;;;;;;2.02;66.85;98377.91;10459447;28;20056;-50
2021/01/22 20:56:55;;;;;;;34.08;14.32;;;;;;;1.96;67.19;98373.16;10459418;28;20040;-49
2021/01/22 21:01:57;;;;;;;42.65;14.20;;;;;;;2.00;66.80;98378.97;10459055;28;20115;-50
2021/01/22 21:06:58;;;;;;;42.88;16.35;;;;;;;2.06;66.81;98378.53;10462091;28;20139;-54
2021/01/22 21:12:01;;;;;;;39.72;14.27;;;;;;;2.06;66.76;98376.78;10460781;28;20482;-50
2021/01/22 21:17:03;;;;;;;35.50;13.95;;;;;;;2.01;66.87;98372.84;10458270;28;20517;-48
2021/01/22 21:22:05;;;;;;;48.42;17.60;;;;;;;2.03;66.79;98376.16;10457397;28;20440;-49
2021/01/22 21:27:08;;;;;;;37.38;13.10;;;;;;;2.06;66.63;98362.97;10458551;28;20102;-51
2021/01/22 21:32:09;;;;;;;41.72;14.55;;;;;;;2.08;66.93;98363.69;10458076;28;20045;-49
2021/01/22 21:37:11;;;;;;;37.17;14.18;;;;;;;2.05;66.78;98356.13;10458314;28;20414;-49
2021/01/22 21:42:14;;;;;;;42.25;14.55;;;;;;;2.10;66.98;98353.22;10457999;28;20485;-49
2021/01/22 21:47:16;;;;;;;38.90;13.27;;;;;;;2.15;66.97;98338.97;10457205;28;20366;-50
2021/01/22 21:52:18;;;;;;;39.67;15.10;;;;;;;2.16;66.45;98332.06;10457625;28;20392;-49
2021/01/22 21:57:20;;;;;;;40.55;13.80;;;;;;;2.14;66.75;98326.13;10457778;28;20057;-49
2021/01/22 22:02:22;;;;;;;21.15;8.10;;;;;;;2.14;67.01;98329.56;10456813;28;20063;-48
2021/01/22 22:07:24;;;;;;;34.15;12.68;;;;;;;2.15;67.08;98320.81;10458055;28;20065;-50
2021/01/22 22:12:27;;;;;;;43.90;17.33;;;;;;;2.14;66.88;98324.38;10457282;28;20079;-49
2021/01/22 22:17:29;;;;;;;41.83;12.70;;;;;;;2.15;66.79;98327.78;10458610;28;20071;-50
2021/01/22 22:22:31;;;;;;;37.60;14.15;;;;;;;2.07;66.87;98323.16;10457612;28;20481;-49
2021/01/22 22:27:33;;;;;;;39.58;13.18;;;;;;;1.99;67.35;98320.28;10457626;28;20068;-49
2021/01/22 22:32:35;;;;;;;45.70;14.40;;;;;;;1.99;67.14;98315.09;10461418;28;20055;-50
2021/01/22 22:37:37;;;;;;;44.17;13.80;;;;;;;2.04;67.29;98313.03;10464667;28;20114;-48
2021/01/22 22:42:39;;;;;;;45.55;13.48;;;;;;;2.07;67.15;98307.63;10464141;28;20569;-50
2021/01/22 22:47:41;;;;;;;61.20;16.42;;;;;;;2.09;67.08;98305.72;10465626;28;20143;-50
2021/01/22 22:52:44;;;;;;;47.58;13.23;;;;;;;2.18;67.34;98310.22;10465062;28;20045;-52
2021/01/22 22:57:46;;;;;;;31.08;9.70;;;;;;;2.17;66.86;98311.19;10467736;28;20071;-49
2021/01/22 23:02:48;;;;;;;61.22;14.20;;;;;;;2.09;67.31;98303.13;10463541;28;20397;-51
2021/01/22 23:07:50;;;;;;;54.40;14.77;;;;;;;2.03;67.07;98290.63;10463894;28;20052;-50